sensor_id;sensor_type;location;lat;lon;timestamp;temperature;humidity
5218;DHT22;26539;51.064;6.346;2022-07-24T00:00:39;21.50;99.90
5218;DHT22;26539;51.064;6.346;2022-07-24T00:03:05;21.40;99.90
5218;DHT22;26539;51.064;6.346;2022-07-24T00:05:31;21.40;99.90
5218;DHT22;26539;51.064;6.346;2022-07-24T00:07:56;21.40;99.90
5218;DHT22;26539;51.064;6.346;2022-07-24T00:10:22;21.40;99.90
5218;DHT22;26539;51.064;6.346;2022-07-24T00:12:48;21.40;99.90
5218;DHT22;26539;51.064;6.346;2022-07-24T00:15:14;21.30;99.90
5218;DHT22;26539;51.064;6.346;2022-07-24T00:17:40;21.30;99.90
5218;DHT22;26539;51.064;6.346;2022-07-24T00:20:08;21.30;99.90
5218;DHT22;26539;51.064;6.346;2022-07-24T00:22:34;21.20;99.90
5218;DHT22;26539;51.064;6.346;2022-07-24T00:25:00;21.20;99.90
5218;DHT22;26539;51.064;6.346;2022-07-24T00:27:25;21.20;99.90
5218;DHT22;26539;51.064;6.346;2022-07-24T00:29:51;21.20;99.90
5218;DHT22;26539;51.064;6.346;2022-07-24T00:32:16;21.10;99.90
5218;DHT22;26539;51.064;6.346;2022-07-24T00:34:42;21.10;99.90
5218;DHT22;26539;51.064;6.346;2022-07-24T00:37:08;21.10;99.90
5218;DHT22;26539;51.064;6.346;2022-07-24T00:39:33;21.10;99.90
5218;DHT22;26539;51.064;6.346;2022-07-24T00:41:59;21.00;99.90
5218;DHT22;26539;51.064;6.346;2022-07-24T00:44:25;21.00;99.90
5218;DHT22;26539;51.064;6.346;2022-07-24T00:46:50;21.00;99.90
5218;DHT22;26539;51.064;6.346;2022-07-24T00:49:19;21.00;99.90
5218;DHT22;26539;51.064;6.346;2022-07-24T00:51:48;21.00;99.90
5218;DHT22;26539;51.064;6.346;2022-07-24T00:54:14;21.00;99.90
5218;DHT22;26539;51.064;6.346;2022-07-24T00:56:42;20.90;99.90
5218;DHT22;26539;51.064;6.346;2022-07-24T00:59:08;20.90;99.90
5218;DHT22;26539;51.064;6.346;2022-07-24T01:01:34;20.90;99.90
5218;DHT22;26539;51.064;6.346;2022-07-24T01:03:59;20.90;99.90
5218;DHT22;26539;51.064;6.346;2022-07-24T01:06:25;20.80;99.90
5218;DHT22;26539;51.064;6.346;2022-07-24T01:08:51;20.80;99.90
5218;DHT22;26539;51.064;6.346;2022-07-24T01:11:18;20.70;99.90
5218;DHT22;26539;51.064;6.346;2022-07-24T01:13:44;20.60;99.90
5218;DHT22;26539;51.064;6.346;2022-07-24T01:16:10;20.60;99.90
5218;DHT22;26539;51.064;6.346;2022-07-24T01:18:36;20.60;99.90
5218;DHT22;26539;51.064;6.346;2022-07-24T01:21:03;20.50;99.90
5218;DHT22;26539;51.064;6.346;2022-07-24T01:23:29;20.50;99.90
5218;DHT22;26539;51.064;6.346;2022-07-24T01:25:55;20.50;99.90
5218;DHT22;26539;51.064;6.346;2022-07-24T01:28:20;20.50;99.90
5218;DHT22;26539;51.064;6.346;2022-07-24T01:30:46;20.50;99.90
5218;DHT22;26539;51.064;6.346;2022-07-24T01:33:12;20.40;99.90
5218;DHT22;26539;51.064;6.346;2022-07-24T01:35:38;20.40;99.90
5218;DHT22;26539;51.064;6.346;2022-07-24T01:38:03;20.30;99.90
5218;DHT22;26539;51.064;6.346;2022-07-24T01:40:29;20.30;99.90
5218;DHT22;26539;51.064;6.346;2022-07-24T01:42:54;20.30;99.90
5218;DHT22;26539;51.064;6.346;2022-07-24T01:45:20;20.30;99.90
5218;DHT22;26539;51.064;6.346;2022-07-24T01:47:46;20.30;99.90
5218;DHT22;26539;51.064;6.346;2022-07-24T01:50:12;20.30;99.90
5218;DHT22;26539;51.064;6.346;2022-07-24T01:52:38;20.30;99.90
5218;DHT22;26539;51.064;6.346;2022-07-24T01:55:05;20.30;99.90
5218;DHT22;26539;51.064;6.346;2022-07-24T01:57:32;20.20;99.90
5218;DHT22;26539;51.064;6.346;2022-07-24T01:59:58;20.20;99.90
5218;DHT22;26539;51.064;6.346;2022-07-24T02:02:24;20.10;99.90
5218;DHT22;26539;51.064;6.346;2022-07-24T02:04:50;20.10;99.90
5218;DHT22;26539;51.064;6.346;2022-07-24T02:07:16;20.10;99.90
5218;DHT22;26539;51.064;6.346;2022-07-24T02:09:41;20.10;99.90
5218;DHT22;26539;51.064;6.346;2022-07-24T02:12:07;20.00;99.90
5218;DHT22;26539;51.064;6.346;2022-07-24T02:14:32;20.00;99.90
5218;DHT22;26539;51.064;6.346;2022-07-24T02:16:58;20.00;1.00
5218;DHT22;26539;51.064;6.346;2022-07-24T02:19:23;19.90;1.00
5218;DHT22;26539;51.064;6.346;2022-07-24T02:21:50;19.90;1.00
5218;DHT22;26539;51.064;6.346;2022-07-24T02:24:15;19.90;1.00
5218;DHT22;26539;51.064;6.346;2022-07-24T02:26:41;19.90;1.00
5218;DHT22;26539;51.064;6.346;2022-07-24T02:29:07;19.90;1.00
5218;DHT22;26539;51.064;6.346;2022-07-24T02:31:32;19.90;1.00
5218;DHT22;26539;51.064;6.346;2022-07-24T02:33:58;19.80;1.00
5218;DHT22;26539;51.064;6.346;2022-07-24T02:36:24;19.80;1.00
5218;DHT22;26539;51.064;6.346;2022-07-24T02:38:49;19.80;1.00
5218;DHT22;26539;51.064;6.346;2022-07-24T02:41:15;19.70;1.00
5218;DHT22;26539;51.064;6.346;2022-07-24T02:43:40;19.70;1.00
5218;DHT22;26539;51.064;6.346;2022-07-24T02:46:06;19.60;1.00
5218;DHT22;26539;51.064;6.346;2022-07-24T02:48:32;19.60;1.00
5218;DHT22;26539;51.064;6.346;2022-07-24T02:50:59;19.50;1.00
5218;DHT22;26539;51.064;6.346;2022-07-24T02:53:24;19.50;1.00
5218;DHT22;26539;51.064;6.346;2022-07-24T02:55:50;19.40;1.00
5218;DHT22;26539;51.064;6.346;2022-07-24T02:58:15;19.40;1.00
5218;DHT22;26539;51.064;6.346;2022-07-24T03:00:41;19.40;1.00
5218;DHT22;26539;51.064;6.346;2022-07-24T03:03:07;19.40;3.50
5218;DHT22;26539;51.064;6.346;2022-07-24T03:05:32;19.40;17.30
5218;DHT22;26539;51.064;6.346;2022-07-24T03:07:58;19.40;18.40
5218;DHT22;26539;51.064;6.346;2022-07-24T03:10:23;19.40;25.70
5218;DHT22;26539;51.064;6.346;2022-07-24T03:12:49;19.40;48.60
5218;DHT22;26539;51.064;6.346;2022-07-24T03:15:15;19.40;45.10
5218;DHT22;26539;51.064;6.346;2022-07-24T03:17:51;19.40;46.40
5218;DHT22;26539;51.064;6.346;2022-07-24T03:20:17;19.40;47.50
5218;DHT22;26539;51.064;6.346;2022-07-24T03:22:44;19.40;20.30
5218;DHT22;26539;51.064;6.346;2022-07-24T03:25:10;19.40;12.20
5218;DHT22;26539;51.064;6.346;2022-07-24T03:27:36;19.40;1.00
5218;DHT22;26539;51.064;6.346;2022-07-24T03:30:03;19.40;1.00
5218;DHT22;26539;51.064;6.346;2022-07-24T03:32:29;19.40;1.00
5218;DHT22;26539;51.064;6.346;2022-07-24T03:34:54;19.40;1.00
5218;DHT22;26539;51.064;6.346;2022-07-24T03:37:20;19.40;1.00
5218;DHT22;26539;51.064;6.346;2022-07-24T03:39:45;19.40;1.00
5218;DHT22;26539;51.064;6.346;2022-07-24T03:42:11;19.40;1.00
5218;DHT22;26539;51.064;6.346;2022-07-24T03:44:36;19.40;1.00
5218;DHT22;26539;51.064;6.346;2022-07-24T03:47:02;19.40;1.00
5218;DHT22;26539;51.064;6.346;2022-07-24T03:49:27;19.40;1.00
5218;DHT22;26539;51.064;6.346;2022-07-24T03:51:53;19.40;1.00
5218;DHT22;26539;51.064;6.346;2022-07-24T03:54:19;19.40;1.00
5218;DHT22;26539;51.064;6.346;2022-07-24T03:56:44;19.40;1.00
5218;DHT22;26539;51.064;6.346;2022-07-24T03:59:10;19.40;1.00
5218;DHT22;26539;51.064;6.346;2022-07-24T04:01:35;19.40;9.30
5218;DHT22;26539;51.064;6.346;2022-07-24T04:04:01;19.40;43.30
5218;DHT22;26539;51.064;6.346;2022-07-24T04:06:31;19.40;83.20
5218;DHT22;26539;51.064;6.346;2022-07-24T04:08:58;19.30;98.00
5218;DHT22;26539;51.064;6.346;2022-07-24T04:11:23;19.40;99.90
5218;DHT22;26539;51.064;6.346;2022-07-24T04:13:49;19.40;99.90
5218;DHT22;26539;51.064;6.346;2022-07-24T04:16:15;19.40;99.90
5218;DHT22;26539;51.064;6.346;2022-07-24T04:18:40;19.40;90.00
5218;DHT22;26539;51.064;6.346;2022-07-24T04:21:06;19.40;75.10
5218;DHT22;26539;51.064;6.346;2022-07-24T04:23:31;19.50;91.90
5218;DHT22;26539;51.064;6.346;2022-07-24T04:25:57;19.50;65.10
5218;DHT22;26539;51.064;6.346;2022-07-24T04:28:23;19.50;38.00
5218;DHT22;26539;51.064;6.346;2022-07-24T04:30:49;19.60;13.30
5218;DHT22;26539;51.064;6.346;2022-07-24T04:33:14;19.70;1.00
5218;DHT22;26539;51.064;6.346;2022-07-24T04:35:40;19.70;1.00
5218;DHT22;26539;51.064;6.346;2022-07-24T04:38:05;19.80;1.00
5218;DHT22;26539;51.064;6.346;2022-07-24T04:40:31;19.90;1.00
5218;DHT22;26539;51.064;6.346;2022-07-24T04:42:56;20.00;1.00
5218;DHT22;26539;51.064;6.346;2022-07-24T04:45:22;20.10;1.00
5218;DHT22;26539;51.064;6.346;2022-07-24T04:47:48;20.20;1.00
5218;DHT22;26539;51.064;6.346;2022-07-24T04:50:13;20.30;1.00
5218;DHT22;26539;51.064;6.346;2022-07-24T04:52:39;20.40;1.00
5218;DHT22;26539;51.064;6.346;2022-07-24T04:55:05;20.60;1.00
5218;DHT22;26539;51.064;6.346;2022-07-24T04:57:30;20.80;1.00
5218;DHT22;26539;51.064;6.346;2022-07-24T04:59:56;20.90;1.00
5218;DHT22;26539;51.064;6.346;2022-07-24T05:02:21;21.00;99.90
5218;DHT22;26539;51.064;6.346;2022-07-24T05:04:47;21.20;99.90
5218;DHT22;26539;51.064;6.346;2022-07-24T05:07:12;21.30;99.90
5218;DHT22;26539;51.064;6.346;2022-07-24T05:09:38;21.30;99.90
5218;DHT22;26539;51.064;6.346;2022-07-24T05:12:04;21.40;99.90
5218;DHT22;26539;51.064;6.346;2022-07-24T05:14:29;21.40;99.90
5218;DHT22;26539;51.064;6.346;2022-07-24T05:16:55;21.50;99.90
5218;DHT22;26539;51.064;6.346;2022-07-24T05:19:21;21.60;99.90
5218;DHT22;26539;51.064;6.346;2022-07-24T05:21:46;21.70;99.90
5218;DHT22;26539;51.064;6.346;2022-07-24T05:24:12;21.80;99.90
5218;DHT22;26539;51.064;6.346;2022-07-24T05:26:37;21.90;99.90
5218;DHT22;26539;51.064;6.346;2022-07-24T05:29:04;22.00;99.90
5218;DHT22;26539;51.064;6.346;2022-07-24T05:31:31;22.10;99.90
5218;DHT22;26539;51.064;6.346;2022-07-24T05:33:57;22.30;99.90
5218;DHT22;26539;51.064;6.346;2022-07-24T05:36:24;22.30;99.90
5218;DHT22;26539;51.064;6.346;2022-07-24T05:38:50;22.40;99.90
5218;DHT22;26539;51.064;6.346;2022-07-24T05:41:15;22.40;99.90
5218;DHT22;26539;51.064;6.346;2022-07-24T05:43:41;22.50;99.90
5218;DHT22;26539;51.064;6.346;2022-07-24T05:46:07;22.70;99.90
5218;DHT22;26539;51.064;6.346;2022-07-24T05:48:32;22.80;99.90
5218;DHT22;26539;51.064;6.346;2022-07-24T05:50:58;22.90;99.90
5218;DHT22;26539;51.064;6.346;2022-07-24T05:53:24;23.10;99.90
5218;DHT22;26539;51.064;6.346;2022-07-24T05:55:50;23.30;99.90
5218;DHT22;26539;51.064;6.346;2022-07-24T05:58:16;23.60;99.90
5218;DHT22;26539;51.064;6.346;2022-07-24T06:00:42;24.10;99.90
5218;DHT22;26539;51.064;6.346;2022-07-24T06:03:08;25.50;99.90
5218;DHT22;26539;51.064;6.346;2022-07-24T06:05:33;29.00;99.90
5218;DHT22;26539;51.064;6.346;2022-07-24T06:07:59;32.50;99.90
5218;DHT22;26539;51.064;6.346;2022-07-24T06:10:25;35.20;99.90
5218;DHT22;26539;51.064;6.346;2022-07-24T06:12:50;37.30;99.90
5218;DHT22;26539;51.064;6.346;2022-07-24T06:15:16;39.20;99.90
5218;DHT22;26539;51.064;6.346;2022-07-24T06:17:41;40.80;99.90
5218;DHT22;26539;51.064;6.346;2022-07-24T06:20:08;42.10;99.90
5218;DHT22;26539;51.064;6.346;2022-07-24T06:22:34;43.50;99.90
5218;DHT22;26539;51.064;6.346;2022-07-24T06:24:59;44.40;99.20
5218;DHT22;26539;51.064;6.346;2022-07-24T06:27:25;45.40;94.40
5218;DHT22;26539;51.064;6.346;2022-07-24T06:29:50;46.30;89.40
5218;DHT22;26539;51.064;6.346;2022-07-24T06:32:16;46.90;79.00
5218;DHT22;26539;51.064;6.346;2022-07-24T06:34:42;47.60;68.50
5218;DHT22;26539;51.064;6.346;2022-07-24T06:37:10;48.20;60.40
5218;DHT22;26539;51.064;6.346;2022-07-24T06:39:35;49.10;56.20
5218;DHT22;26539;51.064;6.346;2022-07-24T06:42:01;50.30;51.90
5218;DHT22;26539;51.064;6.346;2022-07-24T06:44:26;51.50;47.90
5218;DHT22;26539;51.064;6.346;2022-07-24T06:46:52;53.10;45.50
5218;DHT22;26539;51.064;6.346;2022-07-24T06:49:17;54.30;41.60
5218;DHT22;26539;51.064;6.346;2022-07-24T06:51:43;55.50;39.50
5218;DHT22;26539;51.064;6.346;2022-07-24T06:54:09;56.20;34.70
5218;DHT22;26539;51.064;6.346;2022-07-24T06:56:34;56.90;31.90
5218;DHT22;26539;51.064;6.346;2022-07-24T06:59:00;57.30;28.20
5218;DHT22;26539;51.064;6.346;2022-07-24T07:01:26;57.80;26.00
5218;DHT22;26539;51.064;6.346;2022-07-24T07:03:55;58.50;24.50
5218;DHT22;26539;51.064;6.346;2022-07-24T07:06:21;59.20;23.30
5218;DHT22;26539;51.064;6.346;2022-07-24T07:08:47;59.90;22.40
5218;DHT22;26539;51.064;6.346;2022-07-24T07:11:13;60.20;22.20
5218;DHT22;26539;51.064;6.346;2022-07-24T07:13:38;60.60;20.90
5218;DHT22;26539;51.064;6.346;2022-07-24T07:16:04;60.90;19.90
5218;DHT22;26539;51.064;6.346;2022-07-24T07:18:30;61.30;18.90
5218;DHT22;26539;51.064;6.346;2022-07-24T07:20:55;61.30;17.40
5218;DHT22;26539;51.064;6.346;2022-07-24T07:23:22;61.40;16.00
5218;DHT22;26539;51.064;6.346;2022-07-24T07:25:49;61.40;14.80
5218;DHT22;26539;51.064;6.346;2022-07-24T07:28:15;60.10;11.80
5218;DHT22;26539;51.064;6.346;2022-07-24T07:30:40;59.00;9.20
5218;DHT22;26539;51.064;6.346;2022-07-24T07:33:06;58.40;8.00
5218;DHT22;26539;51.064;6.346;2022-07-24T07:35:32;57.90;6.70
5218;DHT22;26539;51.064;6.346;2022-07-24T07:37:57;57.20;5.70
5218;DHT22;26539;51.064;6.346;2022-07-24T07:40:24;56.60;5.00
5218;DHT22;26539;51.064;6.346;2022-07-24T07:42:50;56.30;4.50
5218;DHT22;26539;51.064;6.346;2022-07-24T07:45:15;56.30;4.90
5218;DHT22;26539;51.064;6.346;2022-07-24T07:47:41;56.20;14.60
5218;DHT22;26539;51.064;6.346;2022-07-24T07:50:07;56.30;4.80
5218;DHT22;26539;51.064;6.346;2022-07-24T07:52:33;56.10;4.70
5218;DHT22;26539;51.064;6.346;2022-07-24T07:54:58;56.10;4.90
5218;DHT22;26539;51.064;6.346;2022-07-24T07:57:24;56.20;4.10
5218;DHT22;26539;51.064;6.346;2022-07-24T07:59:49;56.40;4.90
5218;DHT22;26539;51.064;6.346;2022-07-24T08:02:15;56.50;4.20
5218;DHT22;26539;51.064;6.346;2022-07-24T08:04:41;56.60;4.10
5218;DHT22;26539;51.064;6.346;2022-07-24T08:07:06;56.60;4.00
5218;DHT22;26539;51.064;6.346;2022-07-24T08:09:32;56.80;4.40
5218;DHT22;26539;51.064;6.346;2022-07-24T08:11:57;56.90;3.60
5218;DHT22;26539;51.064;6.346;2022-07-24T08:14:23;57.00;3.40
5218;DHT22;26539;51.064;6.346;2022-07-24T08:16:49;57.00;3.40
5218;DHT22;26539;51.064;6.346;2022-07-24T08:19:14;56.70;3.10
5218;DHT22;26539;51.064;6.346;2022-07-24T08:21:40;56.90;2.30
5218;DHT22;26539;51.064;6.346;2022-07-24T08:24:06;56.80;2.20
5218;DHT22;26539;51.064;6.346;2022-07-24T08:26:32;56.90;1.60
5218;DHT22;26539;51.064;6.346;2022-07-24T08:28:58;56.80;1.90
5218;DHT22;26539;51.064;6.346;2022-07-24T08:31:25;56.60;1.00
5218;DHT22;26539;51.064;6.346;2022-07-24T08:33:51;56.60;1.00
5218;DHT22;26539;51.064;6.346;2022-07-24T08:36:16;56.70;1.00
5218;DHT22;26539;51.064;6.346;2022-07-24T08:38:42;56.90;1.10
5218;DHT22;26539;51.064;6.346;2022-07-24T08:41:08;56.90;1.00
5218;DHT22;26539;51.064;6.346;2022-07-24T08:43:34;57.10;1.00
5218;DHT22;26539;51.064;6.346;2022-07-24T08:46:00;57.00;1.00
5218;DHT22;26539;51.064;6.346;2022-07-24T08:48:26;56.90;1.00
5218;DHT22;26539;51.064;6.346;2022-07-24T08:50:53;56.80;1.00
5218;DHT22;26539;51.064;6.346;2022-07-24T08:53:20;56.70;1.00
5218;DHT22;26539;51.064;6.346;2022-07-24T08:55:47;56.80;1.00
5218;DHT22;26539;51.064;6.346;2022-07-24T08:58:12;56.70;1.00
5218;DHT22;26539;51.064;6.346;2022-07-24T09:00:38;56.70;1.00
5218;DHT22;26539;51.064;6.346;2022-07-24T09:03:04;56.50;1.00
5218;DHT22;26539;51.064;6.346;2022-07-24T09:05:29;56.50;1.00
5218;DHT22;26539;51.064;6.346;2022-07-24T09:08:11;56.60;1.00
5218;DHT22;26539;51.064;6.346;2022-07-24T09:10:37;56.50;1.00
5218;DHT22;26539;51.064;6.346;2022-07-24T09:13:14;56.20;6.60
5218;DHT22;26539;51.064;6.346;2022-07-24T09:15:48;55.90;1.00
5218;DHT22;26539;51.064;6.346;2022-07-24T09:18:34;55.80;1.00
5218;DHT22;26539;51.064;6.346;2022-07-24T09:21:14;55.60;1.00
5218;DHT22;26539;51.064;6.346;2022-07-24T09:23:40;55.40;1.00
5218;DHT22;26539;51.064;6.346;2022-07-24T09:26:06;55.40;1.00
5218;DHT22;26539;51.064;6.346;2022-07-24T09:28:53;55.30;1.00
5218;DHT22;26539;51.064;6.346;2022-07-24T09:31:19;55.20;1.00
5218;DHT22;26539;51.064;6.346;2022-07-24T09:33:48;55.00;1.00
5218;DHT22;26539;51.064;6.346;2022-07-24T09:36:16;54.80;1.00
5218;DHT22;26539;51.064;6.346;2022-07-24T09:38:49;54.50;1.00
5218;DHT22;26539;51.064;6.346;2022-07-24T09:41:22;54.40;1.00
5218;DHT22;26539;51.064;6.346;2022-07-24T09:44:02;54.40;1.00
5218;DHT22;26539;51.064;6.346;2022-07-24T09:46:29;54.30;1.00
5218;DHT22;26539;51.064;6.346;2022-07-24T09:48:57;54.10;1.00
5218;DHT22;26539;51.064;6.346;2022-07-24T09:51:25;52.80;1.00
5218;DHT22;26539;51.064;6.346;2022-07-24T09:53:59;52.00;1.00
5218;DHT22;26539;51.064;6.346;2022-07-24T09:56:26;51.30;1.00
5218;DHT22;26539;51.064;6.346;2022-07-24T09:58:55;51.40;1.00
5218;DHT22;26539;51.064;6.346;2022-07-24T10:01:23;51.40;1.00
5218;DHT22;26539;51.064;6.346;2022-07-24T10:03:50;51.50;1.00
5218;DHT22;26539;51.064;6.346;2022-07-24T10:06:19;51.50;1.00
5218;DHT22;26539;51.064;6.346;2022-07-24T10:08:48;51.50;1.00
5218;DHT22;26539;51.064;6.346;2022-07-24T10:11:14;51.50;1.00
5218;DHT22;26539;51.064;6.346;2022-07-24T10:13:40;51.80;1.00
5218;DHT22;26539;51.064;6.346;2022-07-24T10:26:45;50.80;1.00
5218;DHT22;26539;51.064;6.346;2022-07-24T10:29:22;50.80;1.00
5218;DHT22;26539;51.064;6.346;2022-07-24T10:31:53;50.80;1.00
5218;DHT22;26539;51.064;6.346;2022-07-24T10:37:07;51.00;1.00
5218;DHT22;26539;51.064;6.346;2022-07-24T10:39:43;51.00;1.00
5218;DHT22;26539;51.064;6.346;2022-07-24T10:42:13;51.30;1.00
5218;DHT22;26539;51.064;6.346;2022-07-24T10:44:39;51.30;1.00
5218;DHT22;26539;51.064;6.346;2022-07-24T10:47:06;50.90;1.00
5218;DHT22;26539;51.064;6.346;2022-07-24T10:49:48;50.70;1.00
5218;DHT22;26539;51.064;6.346;2022-07-24T10:52:41;50.20;1.00
5218;DHT22;26539;51.064;6.346;2022-07-24T10:58:12;49.30;1.00
5218;DHT22;26539;51.064;6.346;2022-07-24T11:00:46;49.50;1.00
5218;DHT22;26539;51.064;6.346;2022-07-24T11:03:22;49.50;1.00
5218;DHT22;26539;51.064;6.346;2022-07-24T11:06:10;49.60;1.00
5218;DHT22;26539;51.064;6.346;2022-07-24T11:11:16;49.50;1.00
5218;DHT22;26539;51.064;6.346;2022-07-24T11:13:45;49.30;1.00
5218;DHT22;26539;51.064;6.346;2022-07-24T11:27:06;48.80;1.00
5218;DHT22;26539;51.064;6.346;2022-07-24T11:29:36;48.60;1.00
5218;DHT22;26539;51.064;6.346;2022-07-24T11:34:30;48.70;1.00
5218;DHT22;26539;51.064;6.346;2022-07-24T11:36:57;48.60;1.00
5218;DHT22;26539;51.064;6.346;2022-07-24T11:39:33;48.60;1.00
5218;DHT22;26539;51.064;6.346;2022-07-24T11:42:02;48.20;1.00
5218;DHT22;26539;51.064;6.346;2022-07-24T11:47:07;47.80;1.00
5218;DHT22;26539;51.064;6.346;2022-07-24T11:49:46;47.80;1.00
5218;DHT22;26539;51.064;6.346;2022-07-24T11:52:18;47.60;1.00
5218;DHT22;26539;51.064;6.346;2022-07-24T11:54:45;47.50;1.00
5218;DHT22;26539;51.064;6.346;2022-07-24T11:57:28;47.50;1.00
5218;DHT22;26539;51.064;6.346;2022-07-24T11:59:54;47.50;1.00
5218;DHT22;26539;51.064;6.346;2022-07-24T12:02:21;47.60;1.00
5218;DHT22;26539;51.064;6.346;2022-07-24T12:04:47;47.80;1.00
5218;DHT22;26539;51.064;6.346;2022-07-24T12:07:22;47.90;1.00
5218;DHT22;26539;51.064;6.346;2022-07-24T12:09:49;47.50;1.00
5218;DHT22;26539;51.064;6.346;2022-07-24T12:12:24;47.20;1.00
5218;DHT22;26539;51.064;6.346;2022-07-24T12:15:00;47.20;1.00
5218;DHT22;26539;51.064;6.346;2022-07-24T12:17:27;46.80;1.00
5218;DHT22;26539;51.064;6.346;2022-07-24T12:19:55;46.50;1.00
5218;DHT22;26539;51.064;6.346;2022-07-24T12:22:22;46.40;1.00
5218;DHT22;26539;51.064;6.346;2022-07-24T12:24:49;46.50;1.00
5218;DHT22;26539;51.064;6.346;2022-07-24T12:27:39;46.30;1.00
5218;DHT22;26539;51.064;6.346;2022-07-24T12:30:21;46.20;1.00
5218;DHT22;26539;51.064;6.346;2022-07-24T12:32:59;46.10;1.00
5218;DHT22;26539;51.064;6.346;2022-07-24T12:35:26;46.00;1.00
5218;DHT22;26539;51.064;6.346;2022-07-24T12:37:53;45.80;1.00
5218;DHT22;26539;51.064;6.346;2022-07-24T12:40:30;45.40;1.00
5218;DHT22;26539;51.064;6.346;2022-07-24T12:43:02;45.20;1.00
5218;DHT22;26539;51.064;6.346;2022-07-24T12:45:28;44.90;1.00
5218;DHT22;26539;51.064;6.346;2022-07-24T12:48:20;44.80;1.00
5218;DHT22;26539;51.064;6.346;2022-07-24T12:51:02;44.80;1.00
5218;DHT22;26539;51.064;6.346;2022-07-24T12:53:31;44.60;1.00
5218;DHT22;26539;51.064;6.346;2022-07-24T12:56:11;44.50;1.00
5218;DHT22;26539;51.064;6.346;2022-07-24T12:58:59;44.40;1.00
5218;DHT22;26539;51.064;6.346;2022-07-24T13:01:28;44.10;1.00
5218;DHT22;26539;51.064;6.346;2022-07-24T13:03:57;44.00;1.00
5218;DHT22;26539;51.064;6.346;2022-07-24T13:06:41;43.90;1.00
5218;DHT22;26539;51.064;6.346;2022-07-24T13:09:09;43.80;1.00
5218;DHT22;26539;51.064;6.346;2022-07-24T13:11:37;43.60;1.00
5218;DHT22;26539;51.064;6.346;2022-07-24T13:14:03;43.50;1.00
5218;DHT22;26539;51.064;6.346;2022-07-24T13:16:31;43.40;1.00
5218;DHT22;26539;51.064;6.346;2022-07-24T13:18:58;43.20;1.00
5218;DHT22;26539;51.064;6.346;2022-07-24T13:21:24;43.10;1.00
5218;DHT22;26539;51.064;6.346;2022-07-24T13:23:49;42.80;1.00
5218;DHT22;26539;51.064;6.346;2022-07-24T13:26:15;42.60;1.00
5218;DHT22;26539;51.064;6.346;2022-07-24T13:28:41;42.30;1.00
5218;DHT22;26539;51.064;6.346;2022-07-24T13:31:06;42.10;1.00
5218;DHT22;26539;51.064;6.346;2022-07-24T13:33:32;42.10;1.00
5218;DHT22;26539;51.064;6.346;2022-07-24T13:35:57;41.90;1.00
5218;DHT22;26539;51.064;6.346;2022-07-24T13:38:23;41.80;1.00
5218;DHT22;26539;51.064;6.346;2022-07-24T13:40:48;41.60;1.00
5218;DHT22;26539;51.064;6.346;2022-07-24T13:43:14;41.60;1.00
5218;DHT22;26539;51.064;6.346;2022-07-24T13:45:39;41.50;1.00
5218;DHT22;26539;51.064;6.346;2022-07-24T13:48:05;41.50;1.00
5218;DHT22;26539;51.064;6.346;2022-07-24T13:50:31;41.30;1.00
5218;DHT22;26539;51.064;6.346;2022-07-24T13:52:56;41.10;1.00
5218;DHT22;26539;51.064;6.346;2022-07-24T13:55:22;40.90;1.00
5218;DHT22;26539;51.064;6.346;2022-07-24T13:57:47;40.60;1.00
5218;DHT22;26539;51.064;6.346;2022-07-24T14:00:13;40.40;1.00
5218;DHT22;26539;51.064;6.346;2022-07-24T14:02:39;40.20;1.00
5218;DHT22;26539;51.064;6.346;2022-07-24T14:05:05;40.10;1.00
5218;DHT22;26539;51.064;6.346;2022-07-24T14:07:31;40.00;1.00
5218;DHT22;26539;51.064;6.346;2022-07-24T14:09:56;39.70;1.00
5218;DHT22;26539;51.064;6.346;2022-07-24T14:12:22;39.50;1.00
5218;DHT22;26539;51.064;6.346;2022-07-24T14:14:47;39.30;1.00
5218;DHT22;26539;51.064;6.346;2022-07-24T14:17:13;39.00;1.00
5218;DHT22;26539;51.064;6.346;2022-07-24T14:19:39;38.70;1.00
5218;DHT22;26539;51.064;6.346;2022-07-24T14:22:04;38.50;1.00
5218;DHT22;26539;51.064;6.346;2022-07-24T14:24:30;38.20;1.00
5218;DHT22;26539;51.064;6.346;2022-07-24T14:26:56;38.10;1.00
5218;DHT22;26539;51.064;6.346;2022-07-24T14:29:23;37.90;1.00
5218;DHT22;26539;51.064;6.346;2022-07-24T14:31:48;37.60;1.00
5218;DHT22;26539;51.064;6.346;2022-07-24T14:34:14;37.40;1.00
5218;DHT22;26539;51.064;6.346;2022-07-24T14:36:39;37.40;1.00
5218;DHT22;26539;51.064;6.346;2022-07-24T14:39:05;37.40;1.00
5218;DHT22;26539;51.064;6.346;2022-07-24T14:41:32;37.40;1.00
5218;DHT22;26539;51.064;6.346;2022-07-24T14:43:57;37.40;1.00
5218;DHT22;26539;51.064;6.346;2022-07-24T14:46:23;37.30;1.00
5218;DHT22;26539;51.064;6.346;2022-07-24T14:48:48;37.20;1.00
5218;DHT22;26539;51.064;6.346;2022-07-24T14:51:14;37.20;1.00
5218;DHT22;26539;51.064;6.346;2022-07-24T14:53:39;37.20;1.00
5218;DHT22;26539;51.064;6.346;2022-07-24T14:56:05;37.00;1.00
5218;DHT22;26539;51.064;6.346;2022-07-24T14:58:31;37.00;1.00
5218;DHT22;26539;51.064;6.346;2022-07-24T15:00:56;37.10;1.00
5218;DHT22;26539;51.064;6.346;2022-07-24T15:03:22;37.00;1.00
5218;DHT22;26539;51.064;6.346;2022-07-24T15:05:47;37.00;1.00
5218;DHT22;26539;51.064;6.346;2022-07-24T15:08:13;37.00;1.00
5218;DHT22;26539;51.064;6.346;2022-07-24T15:10:38;36.90;1.00
5218;DHT22;26539;51.064;6.346;2022-07-24T15:13:04;36.90;1.00
5218;DHT22;26539;51.064;6.346;2022-07-24T15:15:29;36.90;1.00
5218;DHT22;26539;51.064;6.346;2022-07-24T15:17:56;36.90;1.00
5218;DHT22;26539;51.064;6.346;2022-07-24T15:20:21;36.90;1.00
5218;DHT22;26539;51.064;6.346;2022-07-24T15:22:47;36.90;1.00
5218;DHT22;26539;51.064;6.346;2022-07-24T15:25:12;36.80;1.00
5218;DHT22;26539;51.064;6.346;2022-07-24T15:27:38;36.80;1.00
5218;DHT22;26539;51.064;6.346;2022-07-24T15:30:04;36.80;1.00
5218;DHT22;26539;51.064;6.346;2022-07-24T15:32:30;36.70;1.00
5218;DHT22;26539;51.064;6.346;2022-07-24T15:34:55;36.60;1.00
5218;DHT22;26539;51.064;6.346;2022-07-24T15:37:21;36.60;1.00
5218;DHT22;26539;51.064;6.346;2022-07-24T15:39:47;36.60;1.70
5218;DHT22;26539;51.064;6.346;2022-07-24T15:42:12;36.50;1.80
5218;DHT22;26539;51.064;6.346;2022-07-24T15:44:38;36.30;1.00
5218;DHT22;26539;51.064;6.346;2022-07-24T15:47:03;36.20;1.00
5218;DHT22;26539;51.064;6.346;2022-07-24T15:49:29;36.20;1.30
5218;DHT22;26539;51.064;6.346;2022-07-24T15:51:54;36.10;1.30
5218;DHT22;26539;51.064;6.346;2022-07-24T15:54:20;36.00;1.00
5218;DHT22;26539;51.064;6.346;2022-07-24T15:56:46;35.90;1.10
5218;DHT22;26539;51.064;6.346;2022-07-24T15:59:11;35.90;1.40
5218;DHT22;26539;51.064;6.346;2022-07-24T16:01:37;35.90;1.60
5218;DHT22;26539;51.064;6.346;2022-07-24T16:04:02;35.90;2.60
5218;DHT22;26539;51.064;6.346;2022-07-24T16:06:28;36.00;2.70
5218;DHT22;26539;51.064;6.346;2022-07-24T16:08:54;36.00;2.10
5218;DHT22;26539;51.064;6.346;2022-07-24T16:11:19;36.00;2.20
5218;DHT22;26539;51.064;6.346;2022-07-24T16:13:45;36.00;2.60
5218;DHT22;26539;51.064;6.346;2022-07-24T16:16:10;36.00;2.70
5218;DHT22;26539;51.064;6.346;2022-07-24T16:18:36;36.00;2.90
5218;DHT22;26539;51.064;6.346;2022-07-24T16:21:03;35.90;3.30
5218;DHT22;26539;51.064;6.346;2022-07-24T16:23:29;35.90;3.80
5218;DHT22;26539;51.064;6.346;2022-07-24T16:25:54;35.90;3.80
5218;DHT22;26539;51.064;6.346;2022-07-24T16:28:20;35.90;3.90
5218;DHT22;26539;51.064;6.346;2022-07-24T16:30:45;35.80;3.90